Time;durP1;ratioP1;P1;durP2;ratioP2;P2;SDS_P1;SDS_P2;PMS_P1;PMS_P2;Temp;Humidity;BMP_temperature;BMP_pressure;BME280_temperature;BME280_humidity;BME280_pressure;Samples;Min_cycle;Max_cycle;Signal;HPM_P1;HPM_P2
2022/06/04 00:01:45;;;;;;;3.43;0.90;;;;;;;16.51;56.67;101865.13;5072801;28;19916;-36
2022/06/04 00:04:12;;;;;;;1.67;0.90;;;;;;;16.40;56.81;101850.47;5072943;28;20735;-36
2022/06/04 00:06:38;;;;;;;2.00;1.05;;;;;;;16.28;57.60;101844.22;5072611;28;20024;-35
2022/06/04 00:09:05;;;;;;;;;;;;;;;16.48;56.43;101847.31;5073128;28;20162;-36
2022/06/04 00:16:59;;;;;;;3.08;1.02;;;;;;;16.20;57.16;101843.56;5072670;28;20421;-35
2022/06/04 00:19:25;;;;;;;3.60;1.27;;;;;;;16.10;57.59;101837.06;5074136;28;20032;-36
2022/06/04 00:21:51;;;;;;;;;;;;;;;16.25;56.46;101836.50;5077572;28;20033;-36
2022/06/04 00:24:16;;;;;;;3.08;1.20;;;;;;;16.09;57.47;101833.50;5076993;28;19915;-36
2022/06/04 00:26:42;;;;;;;1.50;0.93;;;;;;;16.08;58.50;101834.56;5077165;28;20064;-35
2022/06/04 00:29:09;;;;;;;;;;;;;;;16.17;56.63;101838.56;5076964;28;20021;-36
2022/06/04 00:31:36;;;;;;;1.58;0.82;;;;;;;16.01;57.77;101839.38;5076414;28;19909;-36
2022/06/04 00:34:02;;;;;;;2.58;1.13;;;;;;;16.02;57.74;101846.47;5076536;28;20025;-35
2022/06/04 00:36:28;;;;;;;2.50;1.02;;;;;;;15.80;57.46;101834.56;5076652;28;20445;-35
2022/06/04 00:38:53;;;;;;;;;;;;;;;15.79;57.63;101841.91;5077548;28;20029;-35
2022/06/04 00:42:01;;;;;;;3.33;0.87;;;;;;;15.82;57.70;101844.16;5076249;28;19970;-36
2022/06/04 00:44:29;;;;;;;2.65;1.10;;;;;;;15.76;57.58;101856.00;5076631;28;20467;-36
2022/06/04 00:47:07;;;;;;;2.92;1.20;;;;;;;15.63;58.03;101846.22;5076057;28;20183;-35
2022/06/04 00:49:33;;;;;;;1.95;1.20;;;;;;;15.59;58.10;101845.00;5076335;28;20028;-35
2022/06/04 00:51:58;;;;;;;;;;;;;;;15.69;57.47;101836.25;5077038;28;20183;-36
2022/06/04 00:54:24;;;;;;;3.53;1.10;;;;;;;15.44;57.65;101811.97;5076408;28;19914;-35
2022/06/04 00:56:52;;;;;;;;;;;;;;;15.66;57.56;101829.41;5076514;28;20044;-36
2022/06/04 00:59:20;;;;;;;1.55;0.90;;;;;;;15.70;57.42;101851.53;5076287;28;19966;-35
2022/06/04 01:01:51;;;;;;;2.60;0.93;;;;;;;15.61;58.13;101858.38;5076294;28;20040;-35
2022/06/04 01:07:41;;;;;;;4.90;1.45;;;;;;;15.67;57.95;101876.56;5075835;28;20165;-36
2022/06/04 01:10:24;;;;;;;2.65;0.93;;;;;;;15.58;57.25;101878.78;5073776;28;20048;-35
2022/06/04 01:13:13;;;;;;;3.28;1.23;;;;;;;15.69;57.08;101896.22;5073660;28;20037;-35
2022/06/04 01:16:11;;;;;;;2.38;1.27;;;;;;;15.59;57.86;101906.88;5073594;28;20185;-35
2022/06/04 01:18:48;;;;;;;2.58;1.02;;;;;;;15.48;58.00;101911.28;5073552;28;20114;-35
2022/06/04 01:21:40;;;;;;;2.72;1.08;;;;;;;15.41;58.01;101918.75;5073668;28;20424;-35
2022/06/04 01:24:23;;;;;;;3.05;1.05;;;;;;;15.38;58.72;101916.50;5072386;28;20090;-35
2022/06/04 01:27:08;;;;;;;1.88;1.10;;;;;;;15.33;58.32;101897.31;5073041;28;20056;-36
2022/06/04 01:29:38;;;;;;;5.55;1.30;;;;;;;15.11;58.91;101900.59;5073375;28;20465;-35
2022/06/04 01:32:13;;;;;;;3.35;1.17;;;;;;;15.01;59.47;101903.06;5072557;28;20138;-35
2022/06/04 01:34:50;;;;;;;2.40;0.95;;;;;;;15.18;59.10;101906.78;5072966;28;20044;-35
2022/06/04 01:37:26;;;;;;;;;;;;;;;15.28;58.60;101905.38;5073348;28;20119;-36
2022/06/04 01:42:39;;;;;;;;;;;;;;;15.26;58.78;101905.59;5073176;28;20458;-36
2022/06/04 01:45:09;;;;;;;2.00;1.30;;;;;;;15.15;59.38;101901.78;5072567;28;20277;-36
2022/06/04 01:47:36;;;;;;;3.38;1.15;;;;;;;15.07;59.71;101915.75;5074597;28;20346;-36
2022/06/04 01:50:04;;;;;;;3.60;1.50;;;;;;;15.05;59.56;101907.00;5074805;28;20036;-36
2022/06/04 01:52:36;;;;;;;3.42;1.40;;;;;;;15.02;60.55;101907.44;5075078;28;20062;-36
2022/06/04 01:55:01;;;;;;;3.28;1.42;;;;;;;14.95;59.98;101925.81;5075446;28;20055;-36
2022/06/04 01:57:32;;;;;;;;;;;;;;;15.02;59.31;101931.97;5074909;28;20066;-36
2022/06/04 02:00:07;;;;;;;3.17;1.20;;;;;;;14.78;60.35;101916.63;5074909;28;20273;-36
2022/06/04 02:02:50;;;;;;;4.18;1.50;;;;;;;14.77;60.03;101932.16;5075151;28;20103;-36
2022/06/04 02:05:22;;;;;;;2.63;1.42;;;;;;;14.56;60.56;101938.13;5074623;28;20082;-36
2022/06/04 02:07:50;;;;;;;3.70;1.50;;;;;;;14.62;60.73;101934.47;5074367;28;20441;-36
2022/06/04 02:10:25;;;;;;;2.58;1.20;;;;;;;14.47;61.10;101921.25;5074217;28;20419;-36
2022/06/04 02:12:54;;;;;;;4.05;1.17;;;;;;;14.59;61.28;101930.34;5074110;28;20024;-36
2022/06/04 02:15:25;;;;;;;5.47;1.30;;;;;;;14.63;61.20;101928.78;5074643;28;20115;-36
2022/06/04 02:17:57;;;;;;;6.28;1.60;;;;;;;14.70;60.92;101920.53;5074318;28;20063;-36
2022/06/04 02:20:23;;;;;;;2.35;1.20;;;;;;;14.57;61.31;101918.84;5074734;28;20416;-36
2022/06/04 02:22:49;;;;;;;3.45;1.30;;;;;;;14.58;61.37;101916.94;5074477;28;20064;-36
2022/06/04 02:25:14;;;;;;;;;;;;;;;14.59;60.75;101924.91;5074748;28;20119;-36
2022/06/04 02:27:41;;;;;;;1.63;1.10;;;;;;;14.30;61.40;101907.47;5074568;28;19912;-36
2022/06/04 02:30:09;;;;;;;2.30;1.30;;;;;;;14.30;61.79;101920.22;5074033;28;20040;-36
2022/06/04 02:33:08;;;;;;;3.15;1.20;;;;;;;14.38;61.33;101928.91;5074083;28;20035;-36
2022/06/04 02:35:38;;;;;;;3.80;1.58;;;;;;;14.35;61.61;101928.56;5072704;28;20039;-36
2022/06/04 02:38:28;;;;;;;2.65;1.25;;;;;;;14.36;61.29;101919.31;5073946;28;20035;-36
2022/06/04 02:41:05;;;;;;;5.18;1.50;;;;;;;14.36;61.33;101924.75;5074425;28;20058;-36
2022/06/04 02:43:42;;;;;;;;;;;;;;;14.47;60.81;101931.31;5073883;28;20064;-36
2022/06/04 02:46:27;;;;;;;4.53;1.50;;;;;;;14.38;61.62;101906.31;5073533;28;19930;-36
2022/06/04 02:49:16;;;;;;;3.03;1.30;;;;;;;14.47;61.64;101913.09;5074355;28;20043;-36
2022/06/04 02:51:48;;;;;;;2.83;1.55;;;;;;;14.29;62.07;101902.25;5074366;28;20020;-36
2022/06/04 02:54:22;;;;;;;2.50;1.30;;;;;;;14.23;62.17;101904.00;5073946;28;20033;-36
2022/06/04 02:56:50;;;;;;;3.25;1.38;;;;;;;14.29;62.54;101896.78;5073461;28;20036;-36
2022/06/04 02:59:18;;;;;;;2.15;1.45;;;;;;;14.30;62.11;101884.84;5073419;28;20066;-36
2022/06/04 03:01:46;;;;;;;3.95;1.55;;;;;;;14.15;62.69;101863.50;5073497;28;20031;-36
2022/06/04 03:04:12;;;;;;;3.30;1.77;;;;;;;14.18;62.89;101863.03;5073462;28;20051;-36
2022/06/04 03:06:37;;;;;;;;;;;;;;;14.35;62.21;101869.50;5073740;28;20024;-36
2022/06/04 03:09:06;;;;;;;3.88;1.65;;;;;;;14.15;63.21;101864.34;5073318;28;19919;-36
2022/06/04 03:11:39;;;;;;;4.80;1.83;;;;;;;14.16;63.42;101865.19;5073523;28;20036;-36
2022/06/04 03:14:04;;;;;;;2.97;1.52;;;;;;;14.21;63.92;101862.59;5073954;28;20140;-36
2022/06/04 03:16:38;;;;;;;;;;;;;;;14.24;63.06;101870.28;5073623;28;20031;-36
2022/06/04 03:19:04;;;;;;;4.05;1.75;;;;;;;14.05;63.61;101853.16;5073813;28;19963;-38
2022/06/04 03:21:30;;;;;;;3.25;2.00;;;;;;;13.87;64.47;101848.59;5073924;28;20082;-36
2022/06/04 03:23:55;;;;;;;;;;;;;;;14.08;63.89;101860.88;5073513;28;20032;-36
2022/06/04 03:26:21;;;;;;;4.30;2.30;;;;;;;13.96;65.00;101859.16;5073306;28;19955;-36
2022/06/04 03:28:46;;;;;;;;;;;;;;;14.04;64.23;101856.94;5071839;28;20060;-36
2022/06/04 03:31:11;;;;;;;3.80;1.77;;;;;;;13.94;65.48;101855.84;5073034;28;19912;-36
2022/06/04 03:33:37;;;;;;;5.78;2.30;;;;;;;13.90;65.66;101863.63;5073255;28;20415;-36
2022/06/04 03:36:03;;;;;;;3.63;1.80;;;;;;;13.88;66.14;101860.31;5072803;28;20028;-36
2022/06/04 03:38:28;;;;;;;;;;;;;;;13.97;65.03;101850.78;5073363;28;20296;-36
2022/06/04 03:40:53;;;;;;;3.33;2.00;;;;;;;13.86;66.03;101846.13;5073013;28;19934;-36
2022/06/04 03:43:19;;;;;;;3.33;2.20;;;;;;;13.79;66.74;101856.22;5072819;28;20360;-36
2022/06/04 03:45:44;;;;;;;5.27;2.27;;;;;;;13.69;67.34;101853.22;5073111;28;20035;-36
2022/06/04 03:48:09;;;;;;;4.03;2.30;;;;;;;13.68;67.21;101865.97;5072417;28;20303;-36
2022/06/04 03:50:35;;;;;;;4.18;1.95;;;;;;;13.74;67.71;101873.22;5073454;28;20271;-36
2022/06/04 03:53:00;;;;;;;2.97;2.17;;;;;;;13.79;67.53;101892.41;5072829;28;20028;-36
2022/06/04 03:55:27;;;;;;;7.18;2.50;;;;;;;13.64;67.41;101875.63;5073237;28;20029;-36
2022/06/04 03:57:52;;;;;;;7.07;2.50;;;;;;;13.81;67.21;101889.44;5072937;28;20043;-36
2022/06/04 04:00:29;;;;;;;3.55;2.20;;;;;;;13.55;67.99;101888.69;5072579;28;20329;-36
2022/06/04 04:03:00;;;;;;;5.10;2.38;;;;;;;13.67;67.98;101890.69;5073129;28;20028;-36
2022/06/04 04:05:31;;;;;;;5.90;2.28;;;;;;;13.53;68.66;101882.66;5072459;28;20059;-36
2022/06/04 04:07:58;;;;;;;4.57;1.90;;;;;;;13.70;68.42;101903.81;5072658;28;20031;-36
2022/06/04 04:10:25;;;;;;;3.78;2.20;;;;;;;13.71;68.61;101905.44;5072222;28;20116;-36
2022/06/04 04:12:51;;;;;;;6.15;2.28;;;;;;;13.63;68.67;101893.84;5072607;28;20028;-36
2022/06/04 04:15:18;;;;;;;4.75;2.30;;;;;;;13.54;69.73;101913.38;5072521;28;20024;-36
2022/06/04 04:17:43;;;;;;;4.32;2.08;;;;;;;13.58;70.02;101909.16;5072933;28;20094;-36
2022/06/04 04:20:16;;;;;;;3.45;2.40;;;;;;;13.47;70.06;101909.88;5072545;28;20024;-36
2022/06/04 04:22:42;;;;;;;5.03;2.35;;;;;;;13.54;70.34;101906.06;5072468;28;20032;-36
2022/06/04 04:25:08;;;;;;;;;;;;;;;13.64;69.58;101911.81;5073141;28;20118;-36
2022/06/04 04:27:33;;;;;;;4.72;2.50;;;;;;;13.44;70.59;101915.78;5073042;28;19962;-36
2022/06/04 04:29:59;;;;;;;5.18;2.45;;;;;;;13.35;70.81;101896.22;5072079;28;20028;-36
2022/06/04 04:32:24;;;;;;;3.58;2.40;;;;;;;13.51;70.88;101906.50;5072648;28;20028;-36
2022/06/04 04:34:49;;;;;;;6.05;2.47;;;;;;;13.53;70.76;101906.28;5072448;28;20029;-36
2022/06/04 04:37:15;;;;;;;4.72;2.35;;;;;;;13.55;71.11;101901.44;5072919;28;20032;-36
2022/06/04 04:39:40;;;;;;;6.03;3.10;;;;;;;13.51;71.29;101906.50;5072387;28;20460;-36
2022/06/04 04:42:06;;;;;;;4.53;2.40;;;;;;;13.60;71.32;101907.88;5072004;28;20266;-36
2022/06/04 04:44:31;;;;;;;7.05;2.85;;;;;;;13.66;71.76;101917.00;5072100;28;20347;-35
2022/06/04 04:46:57;;;;;;;5.10;2.42;;;;;;;13.60;71.14;101907.03;5072234;28;20056;-36
2022/06/04 04:49:23;;;;;;;9.00;3.38;;;;;;;13.53;71.80;101925.31;5072060;28;20032;-36
2022/06/04 04:51:48;;;;;;;5.60;3.00;;;;;;;13.58;71.52;101928.19;5072606;28;20199;-36
2022/06/04 04:54:14;;;;;;;6.50;2.92;;;;;;;13.60;72.03;101937.75;5072245;28;20039;-36
2022/06/04 04:56:40;;;;;;;;;;;;;;;13.71;71.30;101930.75;5072691;28;20059;-36
2022/06/04 04:59:05;;;;;;;4.75;2.70;;;;;;;13.51;72.29;101933.66;5072542;28;19913;-36
2022/06/04 05:01:31;;;;;;;6.85;3.28;;;;;;;13.56;72.56;101941.97;5072628;28;20037;-36
2022/06/04 05:03:56;;;;;;;4.03;2.50;;;;;;;13.52;72.82;101942.69;5071746;28;20060;-36
2022/06/04 05:06:22;;;;;;;5.45;2.88;;;;;;;13.53;72.74;101944.34;5073050;28;20270;-36
2022/06/04 05:08:52;;;;;;;7.80;2.92;;;;;;;13.56;73.28;101941.16;5075568;28;20035;-36
2022/06/04 05:11:21;;;;;;;5.93;2.90;;;;;;;13.36;73.60;101914.19;5075693;28;20063;-36
2022/06/04 05:13:49;;;;;;;6.38;3.08;;;;;;;13.50;73.49;101950.22;5075540;28;20071;-36
2022/06/04 05:16:24;;;;;;;4.47;3.05;;;;;;;13.46;73.51;101930.78;5075622;28;20032;-36
2022/06/04 05:18:50;;;;;;;6.43;3.00;;;;;;;13.43;74.18;101941.31;5075482;28;20067;-36
2022/06/04 05:21:20;;;;;;;4.90;3.22;;;;;;;13.48;74.19;101941.47;5075765;28;20025;-36
2022/06/04 05:23:46;;;;;;;5.07;2.92;;;;;;;13.51;73.89;101933.66;5075651;28;20025;-36
2022/06/04 05:26:11;;;;;;;6.95;2.95;;;;;;;13.61;74.30;101935.88;5075461;28;20479;-36
2022/06/04 05:28:36;;;;;;;5.70;3.40;;;;;;;13.53;73.94;101941.63;5075014;28;20130;-36
2022/06/04 05:31:02;;;;;;;7.53;4.07;;;;;;;13.41;74.66;101952.38;5075603;28;20254;-36
2022/06/04 05:33:28;;;;;;;;;;;;;;;13.47;74.89;101953.34;5076200;28;20417;-36
2022/06/04 05:35:53;;;;;;;6.68;3.40;;;;;;;13.46;74.72;101949.81;5075325;28;19959;-36
2022/06/04 05:38:18;;;;;;;6.10;3.30;;;;;;;13.42;75.20;101945.91;5075353;28;20044;-36
2022/06/04 05:40:44;;;;;;;4.27;3.40;;;;;;;13.63;75.39;101953.63;5075359;28;20055;-36
2022/06/04 05:43:09;;;;;;;7.27;4.13;;;;;;;13.64;75.19;101955.28;5074803;28;20274;-36
2022/06/04 05:45:34;;;;;;;6.88;4.20;;;;;;;13.58;74.92;101958.09;5075259;28;20047;-36
2022/06/04 05:48:00;;;;;;;6.13;3.47;;;;;;;13.47;75.07;101962.38;5075539;28;20060;-36
2022/06/04 05:50:25;;;;;;;7.60;3.47;;;;;;;13.59;75.42;101963.28;5075428;28;20259;-36
2022/06/04 05:52:50;;;;;;;6.10;3.63;;;;;;;13.59;75.78;101970.59;5074822;28;20090;-36
2022/06/04 05:55:16;;;;;;;5.33;4.17;;;;;;;13.50;75.75;101980.09;5074965;28;20105;-36
2022/06/04 05:57:41;;;;;;;9.30;4.85;;;;;;;13.33;75.67;101993.41;5075328;28;20520;-36
2022/06/04 06:00:08;;;;;;;6.93;3.80;;;;;;;13.22;76.58;101994.13;5074963;28;20025;-36
2022/06/04 06:02:34;;;;;;;7.32;4.20;;;;;;;13.32;76.82;101992.59;5074835;28;20025;-36
2022/06/04 06:04:59;;;;;;;5.75;4.07;;;;;;;13.28;76.45;101990.53;5074789;28;20072;-36
2022/06/04 06:07:25;;;;;;;6.93;4.10;;;;;;;13.29;76.57;101973.19;5074512;28;20468;-36
2022/06/04 06:09:50;;;;;;;5.60;4.00;;;;;;;13.41;76.40;101976.81;5074516;28;20294;-36
2022/06/04 06:12:15;;;;;;;8.30;3.80;;;;;;;13.48;75.72;101957.75;5074315;28;20039;-36
2022/06/04 06:14:41;;;;;;;6.90;3.85;;;;;;;13.49;75.93;101984.72;5074106;28;20032;-36
2022/06/04 06:17:06;;;;;;;6.90;3.75;;;;;;;13.49;76.34;101984.72;5074931;28;20028;-36
2022/06/04 06:19:32;;;;;;;7.47;3.90;;;;;;;13.33;76.37;101991.53;5074599;28;20023;-36
2022/06/04 06:21:57;;;;;;;6.70;3.93;;;;;;;13.50;76.55;101991.78;5074468;28;20711;-36
2022/06/04 06:24:23;;;;;;;7.50;3.55;;;;;;;13.62;76.74;101991.91;5074581;28;20279;-36
2022/06/04 06:26:58;;;;;;;5.20;3.60;;;;;;;13.74;76.00;101995.56;5074175;28;20111;-36
2022/06/04 06:29:27;;;;;;;7.45;4.00;;;;;;;13.67;76.23;101988.53;5074490;28;20020;-36
2022/06/04 06:31:55;;;;;;;6.50;4.00;;;;;;;13.63;75.60;101991.69;5074728;28;20119;-36
2022/06/04 06:34:21;;;;;;;6.07;3.55;;;;;;;13.80;75.64;101994.66;5074083;28;20507;-36
2022/06/04 06:36:47;;;;;;;6.85;3.95;;;;;;;13.70;75.43;101980.75;5073825;28;20472;-36
2022/06/04 06:39:13;;;;;;;;;;;;;;;13.90;74.86;102005.00;5074659;28;20047;-36
2022/06/04 06:41:39;;;;;;;7.38;3.95;;;;;;;13.85;75.21;101988.53;5073665;28;19909;-36
2022/06/04 06:44:05;;;;;;;6.82;4.00;;;;;;;13.84;75.04;101997.75;5073994;28;20032;-36
2022/06/04 06:46:32;;;;;;;;;;;;;;;13.98;74.29;101998.44;5074292;28;20031;-36
2022/06/04 06:49:07;;;;;;;7.43;3.95;;;;;;;13.97;75.33;102003.06;5074012;28;19913;-36
2022/06/04 06:51:47;;;;;;;7.30;4.50;;;;;;;13.99;74.99;101994.66;5073747;28;20028;-35
2022/06/04 06:54:14;;;;;;;6.75;4.07;;;;;;;14.05;74.88;101994.59;5073590;28;20496;-36
2022/06/04 06:56:42;;;;;;;5.82;3.90;;;;;;;14.12;74.43;102003.53;5073430;28;20115;-36
2022/06/04 06:59:07;;;;;;;7.43;4.68;;;;;;;14.10;74.78;102000.22;5073277;28;20033;-36
2022/06/04 07:01:33;;;;;;;;;;;;;;;14.18;73.72;102013.50;5074067;28;20045;-36
2022/06/04 07:04:01;;;;;;;6.80;4.07;;;;;;;14.29;74.73;102011.06;5073480;28;19938;-36
2022/06/04 07:06:33;;;;;;;6.28;4.10;;;;;;;14.33;74.00;102013.09;5073613;28;20029;-36
2022/06/04 07:09:00;;;;;;;7.15;4.30;;;;;;;14.38;73.69;102004.25;5073353;28;20024;-36
2022/06/04 07:11:26;;;;;;;8.00;4.88;;;;;;;14.35;73.17;102000.13;5073508;28;20036;-36
2022/06/04 07:13:52;;;;;;;6.93;4.32;;;;;;;14.34;73.50;101998.44;5073051;28;20029;-36
2022/06/04 07:16:18;;;;;;;;;;;;;;;14.55;72.67;101999.91;5073975;28;20476;-36
2022/06/04 07:18:43;;;;;;;5.53;4.43;;;;;;;14.52;72.87;101994.06;5073276;28;20360;-36
2022/06/04 07:21:08;;;;;;;9.55;4.68;;;;;;;14.56;72.66;101998.00;5073219;28;20460;-36
2022/06/04 07:23:35;;;;;;;8.60;4.55;;;;;;;14.55;72.35;101994.47;5073231;28;20024;-36
2022/06/04 07:26:01;;;;;;;7.15;4.35;;;;;;;14.55;72.50;101993.63;5073639;28;20025;-36
2022/06/04 07:28:27;;;;;;;6.65;4.47;;;;;;;14.70;73.06;102004.94;5073135;28;20095;-36
2022/06/04 07:30:53;;;;;;;;;;;;;;;14.81;71.55;101998.69;5073868;28;20029;-36
2022/06/04 07:33:19;;;;;;;6.85;4.47;;;;;;;14.85;72.02;102004.53;5072787;28;19966;-36
2022/06/04 07:35:48;;;;;;;;;;;;;;;15.06;71.24;102012.16;5073248;28;20072;-36
2022/06/04 07:38:13;;;;;;;4.57;3.63;;;;;;;15.26;71.39;102014.56;5074272;28;19908;-36
2022/06/04 07:40:39;;;;;;;;;;;;;;;15.39;70.59;102006.19;5073482;28;20024;-36
2022/06/04 07:43:04;;;;;;;6.72;5.00;;;;;;;15.23;70.86;102006.88;5072638;28;20409;-36
2022/06/04 07:45:29;;;;;;;;;;;;;;;15.39;70.11;101995.28;5073865;28;20036;-36
2022/06/04 07:47:55;;;;;;;5.63;4.22;;;;;;;15.39;69.98;102010.81;5073106;28;19920;-36
2022/06/04 07:50:21;;;;;;;9.32;4.13;;;;;;;15.51;70.21;102022.56;5073346;28;20064;-36
2022/06/04 07:52:47;;;;;;;;;;;;;;;15.50;69.93;102018.19;5073541;28;20473;-36
2022/06/04 07:55:12;;;;;;;9.10;4.13;;;;;;;15.12;69.63;102005.78;5073293;28;19908;-36
2022/06/04 07:57:37;;;;;;;;;;;;;;;15.42;69.85;102010.34;5073763;28;20066;-36
2022/06/04 08:00:05;;;;;;;5.78;3.83;;;;;;;15.48;69.45;102012.16;5072785;28;19969;-36
2022/06/04 08:02:30;;;;;;;6.45;3.90;;;;;;;15.56;71.06;102019.94;5073103;28;20120;-36
2022/06/04 08:04:56;;;;;;;;;;;;;;;15.64;69.47;102011.47;5073130;28;20056;-36
2022/06/04 08:07:21;;;;;;;7.00;4.70;;;;;;;15.66;70.22;102022.13;5072944;28;19912;-36
2022/06/04 08:09:48;;;;;;;;;;;;;;;15.75;68.78;102019.88;5072846;28;20055;-36
2022/06/04 08:12:14;;;;;;;11.00;4.22;;;;;;;15.60;69.66;102018.41;5072673;28;20049;-36
2022/06/04 08:14:40;;;;;;;9.32;4.82;;;;;;;15.49;70.14;102019.25;5072562;28;20036;-36
2022/06/04 08:17:05;;;;;;;;;;;;;;;15.65;69.68;102020.47;5073815;28;20037;-36
2022/06/04 08:19:32;;;;;;;6.03;4.47;;;;;;;15.64;69.58;102016.91;5072646;28;19908;-36
2022/06/04 08:21:58;;;;;;;8.43;4.68;;;;;;;15.60;69.05;102012.97;5072715;28;20029;-36
2022/06/04 08:24:23;;;;;;;;;;;;;;;15.61;69.29;102006.44;5073006;28;20027;-36
2022/06/04 08:26:53;;;;;;;6.03;4.10;;;;;;;15.72;70.08;101998.56;5072703;28;19916;-36
2022/06/04 08:29:20;;;;;;;6.20;4.43;;;;;;;15.74;69.90;102002.69;5072102;28;20039;-36
2022/06/04 08:31:46;;;;;;;5.63;4.22;;;;;;;15.94;70.35;101994.16;5072797;28;20028;-36
2022/06/04 08:34:11;;;;;;;;;;;;;;;16.15;68.60;102014.50;5072650;28;20025;-36
2022/06/04 08:36:37;;;;;;;6.70;4.67;;;;;;;15.92;68.51;102005.31;5073191;28;19909;-36
2022/06/04 08:39:02;;;;;;;;;;;;;;;16.10;67.98;102001.59;5072654;28;20427;-36
2022/06/04 08:41:51;;;;;;;7.22;4.65;;;;;;;16.09;68.41;102005.38;5075938;28;19916;-36
2022/06/04 08:44:22;;;;;;;7.68;4.63;;;;;;;16.16;68.44;101999.81;5076615;28;20486;-36
2022/06/04 08:46:54;;;;;;;8.00;4.05;;;;;;;16.18;67.25;101987.59;5076667;28;20049;-36
2022/06/04 08:49:29;;;;;;;8.02;5.10;;;;;;;16.41;68.46;101994.06;5076291;28;20040;-36
2022/06/04 08:51:56;;;;;;;7.28;4.85;;;;;;;16.32;67.06;101996.34;5076463;28;20430;-36
2022/06/04 09:00:03;;;;;;;6.63;4.47;;;;;;;16.71;66.48;101997.41;5076313;28;20408;-36
2022/06/04 09:03:00;;;;;;;8.95;4.60;;;;;;;16.72;66.40;101996.34;5075968;28;20054;-36
2022/06/04 09:05:44;;;;;;;6.45;3.92;;;;;;;17.05;65.96;102030.28;5076380;28;20032;-36
2022/06/04 09:08:20;;;;;;;9.00;4.78;;;;;;;17.10;65.94;102033.13;5076356;28;20024;-36
2022/06/04 09:10:51;;;;;;;8.25;4.82;;;;;;;17.00;64.51;102022.00;5075988;28;20028;-36
2022/06/04 09:13:35;;;;;;;5.75;4.30;;;;;;;17.09;65.45;102034.19;5076028;28;20056;-36
2022/06/04 09:16:21;;;;;;;5.55;4.25;;;;;;;16.99;65.33;102025.81;5075719;28;20025;-36
2022/06/04 09:18:49;;;;;;;8.43;4.45;;;;;;;17.03;65.63;102023.41;5075451;28;20465;-36
2022/06/04 09:21:15;;;;;;;5.13;4.07;;;;;;;17.07;65.67;102010.91;5075622;28;20029;-36
2022/06/04 09:23:47;;;;;;;7.22;4.63;;;;;;;17.24;66.57;102015.31;5075321;28;20033;-36
2022/06/04 09:26:21;;;;;;;7.70;4.88;;;;;;;17.17;65.54;102017.38;5075837;28;20029;-36
2022/06/04 09:29:21;;;;;;;7.38;4.28;;;;;;;17.52;66.29;102013.59;5075434;28;20025;-36
2022/06/04 09:31:58;;;;;;;7.05;4.45;;;;;;;17.63;65.56;102011.84;5075245;28;20040;-36
2022/06/04 09:34:39;;;;;;;8.75;4.38;;;;;;;17.84;63.56;102002.06;5075396;28;20380;-36
2022/06/04 09:37:09;;;;;;;5.72;4.28;;;;;;;17.94;64.07;102015.91;5075878;28;20029;-36
2022/06/04 09:39:37;;;;;;;7.05;4.72;;;;;;;17.98;63.97;102017.88;5075857;28;20040;-36
2022/06/04 09:42:12;;;;;;;6.65;4.75;;;;;;;18.00;63.70;102015.72;5075485;28;20036;-36
2022/06/04 09:44:50;;;;;;;5.80;4.47;;;;;;;18.20;63.03;102011.59;5075182;28;20043;-36
2022/06/04 09:47:25;;;;;;;6.65;4.88;;;;;;;18.27;63.27;102004.03;5074717;28;20059;-36
2022/06/04 09:50:05;;;;;;;6.03;5.07;;;;;;;18.46;62.57;102010.03;5075377;28;20024;-36
2022/06/04 09:52:40;;;;;;;7.75;5.05;;;;;;;18.47;62.96;102003.47;5074144;28;20033;-36
2022/06/04 09:55:25;;;;;;;10.02;5.07;;;;;;;18.55;61.38;102018.63;5075458;28;20433;-36
2022/06/04 09:58:07;;;;;;;6.57;5.03;;;;;;;18.43;62.62;102013.25;5075712;28;20032;-36
2022/06/04 10:00:35;;;;;;;7.18;5.05;;;;;;;18.50;61.80;102019.38;5074666;28;20472;-36
2022/06/04 10:03:11;;;;;;;8.00;4.88;;;;;;;18.50;61.16;102009.25;5075062;28;20096;-36
2022/06/04 10:05:48;;;;;;;5.80;4.45;;;;;;;18.53;61.14;102013.38;5075256;28;20032;-36
2022/06/04 10:08:13;;;;;;;7.45;4.80;;;;;;;18.78;60.16;102005.47;5075346;28;20409;-36
2022/06/04 10:10:41;;;;;;;;;;;;;;;19.15;60.82;102020.38;5107690;28;20133;-36
2022/06/04 10:13:45;;;;;;;;;;;;;;;19.39;59.88;102029.09;5075505;28;20053;-36
2022/06/04 10:16:44;;;;;;;6.72;4.85;;;;;;;19.67;59.55;102017.00;5074975;28;20309;-36
2022/06/04 10:19:12;;;;;;;6.03;4.68;;;;;;;19.78;57.67;102016.81;5074463;28;20082;-37
2022/06/04 10:21:41;;;;;;;6.55;4.45;;;;;;;20.11;58.59;102012.06;5074427;28;20417;-36
2022/06/04 10:24:23;;;;;;;9.68;4.53;;;;;;;20.23;56.68;102009.09;5074747;28;20374;-36
2022/06/04 10:26:54;;;;;;;7.90;4.28;;;;;;;20.33;56.13;102023.69;5074807;28;20024;-36
2022/06/04 10:30:13;;;;;;;4.82;4.30;;;;;;;20.29;56.51;102021.75;5073920;28;20035;-36
2022/06/04 10:32:45;;;;;;;7.93;4.88;;;;;;;19.83;56.04;102027.00;5052042;28;20471;-36
2022/06/04 10:35:17;;;;;;;7.38;4.85;;;;;;;19.69;56.31;102014.81;5052547;28;20148;-36
2022/06/04 10:37:46;;;;;;;6.68;4.57;;;;;;;19.82;57.00;102019.84;5052578;28;20439;-36
2022/06/04 10:40:36;;;;;;;6.90;4.43;;;;;;;19.84;57.39;102003.94;5051580;28;20075;-36
2022/06/04 10:43:26;;;;;;;5.15;4.15;;;;;;;19.97;57.44;102019.13;5052223;28;20072;-36
2022/06/04 10:46:18;;;;;;;5.70;4.60;;;;;;;19.84;56.09;102011.34;5051953;28;20033;-36
2022/06/04 10:49:17;;;;;;;7.22;4.50;;;;;;;20.07;56.15;102013.69;5051702;28;20405;-36
2022/06/04 10:52:00;;;;;;;9.95;4.57;;;;;;;20.10;56.80;102018.63;5051852;28;20084;-36
2022/06/04 10:54:49;;;;;;;5.10;4.47;;;;;;;20.11;57.89;102019.47;5052167;28;20536;-36
2022/06/04 10:57:21;;;;;;;6.35;4.35;;;;;;;20.19;57.08;102019.78;5052124;28;20091;-36
2022/06/04 10:59:51;;;;;;;5.60;4.70;;;;;;;20.09;55.96;102008.75;5051838;28;20047;-36
2022/06/04 11:02:49;;;;;;;6.38;4.05;;;;;;;20.27;56.54;102022.03;5052067;28;20025;-36
2022/06/04 11:05:19;;;;;;;;;;;;;;;20.28;56.35;102022.84;4992000;28;20041;-36
2022/06/04 11:08:23;;;;;;;6.20;4.13;;;;;;;20.17;57.04;102021.97;4992259;28;20351;-36
2022/06/04 11:11:02;;;;;;;6.45;4.22;;;;;;;20.26;56.66;102031.38;4992010;28;20042;-36
2022/06/04 11:13:33;;;;;;;5.50;4.45;;;;;;;20.23;57.40;102034.63;4992106;28;20031;-36
2022/06/04 11:16:17;;;;;;;5.10;4.13;;;;;;;20.33;56.88;102031.09;4991774;28;20038;-36
2022/06/04 11:18:49;;;;;;;8.15;4.50;;;;;;;20.39;56.66;102031.94;4991540;28;20022;-36
2022/06/04 11:21:36;;;;;;;5.90;4.30;;;;;;;20.35;55.89;102028.09;4991943;28;20121;-36
2022/06/04 11:24:05;;;;;;;6.35;4.70;;;;;;;20.26;56.60;102020.38;4991987;28;20046;-36
2022/06/04 11:26:55;;;;;;;6.43;4.82;;;;;;;20.32;55.66;102027.53;4991583;28;20035;-36
2022/06/04 11:29:21;;;;;;;6.72;4.50;;;;;;;20.40;56.25;102017.97;4992229;28;20129;-36
2022/06/04 11:32:33;;;;;;;6.90;4.47;;;;;;;20.52;56.57;102023.25;4991635;28;20478;-36
2022/06/04 11:35:23;;;;;;;5.43;4.47;;;;;;;20.56;55.94;102019.69;4934150;29;20198;-36
2022/06/04 11:38:20;;;;;;;5.47;4.35;;;;;;;20.54;55.59;102018.31;4933945;29;20039;-36
2022/06/04 11:41:15;;;;;;;8.77;4.73;;;;;;;20.53;55.34;102011.97;4934044;29;20070;-36
2022/06/04 11:43:58;;;;;;;6.07;4.80;;;;;;;20.68;54.68;102021.38;4972812;28;20404;-36
2022/06/04 11:47:02;;;;;;;6.35;4.20;;;;;;;20.91;55.44;102017.31;4972275;28;20038;-36
2022/06/04 11:49:59;;;;;;;7.70;5.05;;;;;;;20.88;54.60;102010.41;4991509;28;20480;-36
2022/06/04 11:52:27;;;;;;;;;;;;;;;20.88;54.65;102009.59;4972295;28;20435;-36
2022/06/04 11:55:12;;;;;;;5.72;4.20;;;;;;;20.88;55.27;101998.59;4972595;28;20477;-36
2022/06/04 11:57:49;;;;;;;8.82;5.25;;;;;;;21.12;55.42;101994.22;4971891;28;20047;-36
2022/06/04 12:00:34;;;;;;;7.82;4.80;;;;;;;21.32;53.81;101994.25;4972121;28;20407;-36
2022/06/04 12:03:14;;;;;;;6.28;4.57;;;;;;;21.41;54.41;101989.03;4972519;28;20043;-36
2022/06/04 12:06:17;;;;;;;5.47;3.80;;;;;;;21.40;53.49;101990.16;4972342;28;20066;-36
2022/06/04 12:08:48;;;;;;;6.72;4.35;;;;;;;21.42;54.14;101987.94;4952953;29;20046;-36
2022/06/04 12:11:45;;;;;;;9.90;4.90;;;;;;;21.91;53.90;101983.72;4955641;28;20086;-36
2022/06/04 12:14:31;;;;;;;5.50;4.33;;;;;;;22.45;52.35;101970.06;4953171;28;20042;-36